createdAt,value
2017-09-01T00:00:14.633Z,89.13
2017-09-01T00:01:21.670Z,88.83
2017-09-01T00:02:28.528Z,89.10
2017-09-01T00:03:35.702Z,89.32
2017-09-01T00:04:42.490Z,89.68
2017-09-01T00:05:48.546Z,89.52
2017-09-01T00:06:55.392Z,89.17
2017-09-01T00:08:01.468Z,88.77
2017-09-01T00:09:08.245Z,88.94
2017-09-01T00:10:15.416Z,89.04
2017-09-01T00:11:21.301Z,89.43
2017-09-01T00:12:27.351Z,89.77
2017-09-01T00:13:33.413Z,89.57
2017-09-01T00:14:39.536Z,89.13
2017-09-01T00:15:45.707Z,89.10
2017-09-01T00:16:51.784Z,88.76
2017-09-01T00:17:57.920Z,88.92
2017-09-01T00:19:04.061Z,89.72
2017-09-01T00:20:12.103Z,89.49
2017-09-01T00:21:18.269Z,90.04
2017-09-01T00:22:24.828Z,89.46
2017-09-01T00:23:31.185Z,89.21
2017-09-01T00:24:37.243Z,89.14
2017-09-01T00:25:43.306Z,89.25
2017-09-01T00:26:49.401Z,89.05
2017-09-01T00:27:56.956Z,88.92
2017-09-01T00:29:02.990Z,89.14
2017-09-01T00:30:09.528Z,89.57
2017-09-01T00:31:15.398Z,89.83
2017-09-01T00:32:21.464Z,89.67
2017-09-01T00:33:27.564Z,89.85
2017-09-01T00:34:33.747Z,90.04
2017-09-01T00:35:39.859Z,89.81
2017-09-01T00:36:45.974Z,89.58
2017-09-01T00:37:52.815Z,89.77
2017-09-01T00:38:58.929Z,89.24
2017-09-01T00:40:04.995Z,89.55
2017-09-01T00:41:12.436Z,89.85
2017-09-01T00:42:18.183Z,89.45
2017-09-01T00:43:24.285Z,89.13
2017-09-01T00:44:30.485Z,89.32
2017-09-01T00:45:37.426Z,90.21
2017-09-01T00:46:43.496Z,89.58
2017-09-01T00:47:49.542Z,90.36
2017-09-01T00:48:55.676Z,90.04
2017-09-01T00:50:02.241Z,89.98
2017-09-01T00:51:07.963Z,90.11
2017-09-01T00:52:14.100Z,89.86
2017-09-01T00:53:21.155Z,90.02
2017-09-01T00:54:28.257Z,89.32
2017-09-01T00:55:35.701Z,89.29
2017-09-01T00:56:41.182Z,89.63
2017-09-01T00:57:47.422Z,89.68
2017-09-01T00:58:54.241Z,90.42
2017-09-01T01:00:01.383Z,90.52
2017-09-01T01:01:07.660Z,89.81
2017-09-01T01:02:13.835Z,90.19
2017-09-01T01:03:20.106Z,89.83
2017-09-01T01:04:25.904Z,90.32
2017-09-01T01:05:32.081Z,90.31
2017-09-01T01:06:38.158Z,91.00
2017-09-01T01:07:44.392Z,90.89
2017-09-01T01:08:50.838Z,89.92
2017-09-01T01:09:56.999Z,90.25
2017-09-01T01:11:02.213Z,90.21
2017-09-01T01:12:08.127Z,90.36
2017-09-01T01:13:14.291Z,90.56
2017-09-01T01:14:20.382Z,90.90
2017-09-01T01:15:26.346Z,91.31
2017-09-01T01:16:32.697Z,91.56
2017-09-01T01:17:38.631Z,92.19
2017-09-01T01:18:44.361Z,92.14
2017-09-01T01:19:49.577Z,92.02
2017-09-01T01:20:54.904Z,91.70
2017-09-01T01:22:00.094Z,91.39
2017-09-01T01:23:05.440Z,91.34
2017-09-01T01:24:11.522Z,91.86
2017-09-01T01:25:17.847Z,91.69
2017-09-01T01:26:23.982Z,91.64
2017-09-01T01:27:29.349Z,91.31
2017-09-01T01:28:35.661Z,91.41
2017-09-01T01:29:41.388Z,92.05
2017-09-01T01:30:46.757Z,92.18
2017-09-01T01:31:52.746Z,91.97
2017-09-01T01:32:58.369Z,92.17
2017-09-01T01:34:03.757Z,92.34
2017-09-01T01:35:08.895Z,92.10
2017-09-01T01:36:14.216Z,92.30
2017-09-01T01:37:19.635Z,92.66
2017-09-01T01:38:25.084Z,92.44
2017-09-01T01:39:31.137Z,92.08
2017-09-01T01:40:36.676Z,92.00
2017-09-01T01:41:42.777Z,92.30
2017-09-01T01:42:48.552Z,91.68
2017-09-01T01:43:54.471Z,91.93
2017-09-01T01:45:00.292Z,91.97
2017-09-01T01:46:06.759Z,91.59
2017-09-01T01:47:12.099Z,91.78
2017-09-01T01:48:17.607Z,91.88
2017-09-01T01:49:23.410Z,92.07
2017-09-01T01:50:28.958Z,91.86
2017-09-01T01:51:34.734Z,91.65
2017-09-01T01:52:41.196Z,92.01
2017-09-01T01:53:46.511Z,92.46
2017-09-01T01:54:54.976Z,91.89
2017-09-01T01:56:00.163Z,92.23
2017-09-01T01:57:06.162Z,92.38
2017-09-01T01:58:11.535Z,92.72
2017-09-01T01:59:17.239Z,93.24
2017-09-01T02:00:23.199Z,93.36
2017-09-01T02:01:28.546Z,93.27
2017-09-01T02:02:34.025Z,93.42
2017-09-01T02:03:40.066Z,93.06
2017-09-01T02:04:45.463Z,92.67
2017-09-01T02:05:51.960Z,92.81
2017-09-01T02:06:58.528Z,92.47
2017-09-01T02:08:03.745Z,93.01
2017-09-01T02:09:09.431Z,93.16
2017-09-01T02:10:16.003Z,93.11
2017-09-01T02:11:22.892Z,93.25
2017-09-01T02:12:28.975Z,93.20
2017-09-01T02:13:35.542Z,93.21
2017-09-01T02:14:41.213Z,92.59
2017-09-01T02:15:47.451Z,92.55
2017-09-01T02:16:53.548Z,92.45
2017-09-01T02:17:59.963Z,92.60
2017-09-01T02:19:06.597Z,92.98
2017-09-01T02:20:11.797Z,93.26
2017-09-01T02:21:18.162Z,93.51
2017-09-01T02:22:24.350Z,93.26
2017-09-01T02:23:29.599Z,92.90
2017-09-01T02:24:35.451Z,93.01
2017-09-01T02:25:40.874Z,92.91
2017-09-01T02:26:46.247Z,92.60
2017-09-01T02:27:52.048Z,92.42
2017-09-01T02:28:59.319Z,92.83
2017-09-01T02:30:04.654Z,93.44
2017-09-01T02:31:10.909Z,93.53
2017-09-01T02:32:16.612Z,93.37
2017-09-01T02:33:22.724Z,93.33
2017-09-01T02:34:29.703Z,93.36
2017-09-01T02:35:35.833Z,93.41
2017-09-01T02:36:44.026Z,93.81
2017-09-01T02:37:51.599Z,94.22
2017-09-01T02:38:57.660Z,94.29
2017-09-01T02:40:03.435Z,94.05
2017-09-01T02:41:10.753Z,93.79
2017-09-01T02:42:16.123Z,94.00
2017-09-01T02:43:22.475Z,94.15
2017-09-01T02:44:28.055Z,94.00
2017-09-01T02:45:35.326Z,94.13
2017-09-01T02:46:40.702Z,94.21
2017-09-01T02:47:47.080Z,94.36
2017-09-01T02:48:52.870Z,94.42
2017-09-01T02:49:58.823Z,94.82
2017-09-01T02:51:04.273Z,95.01
2017-09-01T02:52:09.697Z,95.16
2017-09-01T02:53:16.173Z,95.01
2017-09-01T02:54:22.289Z,94.66
2017-09-01T02:55:27.767Z,94.61
2017-09-01T02:56:33.116Z,94.70
2017-09-01T02:57:39.512Z,94.39
2017-09-01T02:58:45.533Z,93.74
2017-09-01T02:59:51.579Z,93.95
2017-09-01T03:00:56.972Z,93.94
2017-09-01T03:02:03.241Z,93.82
2017-09-01T03:03:08.425Z,93.46
2017-09-01T03:04:13.766Z,93.57
2017-09-01T03:05:21.328Z,93.84
2017-09-01T03:06:26.724Z,93.72
2017-09-01T03:07:32.907Z,93.93
2017-09-01T03:08:38.883Z,93.95
2017-09-01T03:09:45.679Z,94.68
2017-09-01T03:10:51.446Z,94.45
2017-09-01T03:11:58.499Z,94.35
2017-09-01T03:13:03.965Z,94.76
2017-09-01T03:14:10.290Z,94.94
2017-09-01T03:15:15.706Z,94.96
2017-09-01T03:16:21.584Z,95.47
2017-09-01T03:17:26.979Z,96.25
2017-09-01T03:18:33.333Z,96.50
2017-09-01T03:19:38.883Z,96.31
2017-09-01T03:20:44.829Z,95.89
2017-09-01T03:21:51.501Z,95.78
2017-09-01T03:22:57.791Z,95.91
2017-09-01T03:24:04.921Z,95.91
2017-09-01T03:25:11.097Z,95.95
2017-09-01T03:26:17.956Z,95.62
2017-09-01T03:27:24.297Z,95.83
2017-09-01T03:28:29.501Z,96.17
2017-09-01T03:29:34.856Z,95.74
2017-09-01T03:30:40.506Z,95.63
2017-09-01T03:31:46.877Z,95.90
2017-09-01T03:32:53.246Z,95.70
2017-09-01T03:33:58.842Z,96.02
2017-09-01T03:35:04.188Z,96.17
2017-09-01T03:36:11.902Z,96.43
2017-09-01T03:37:17.474Z,96.70
2017-09-01T03:38:23.405Z,96.54
2017-09-01T03:39:28.796Z,96.78
2017-09-01T03:40:34.320Z,96.17
2017-09-01T03:41:39.799Z,95.61
2017-09-01T03:42:45.292Z,95.92
2017-09-01T03:43:50.743Z,95.58
2017-09-01T03:44:56.242Z,95.19
2017-09-01T03:46:01.506Z,95.09
2017-09-01T03:47:07.091Z,95.32
2017-09-01T03:48:12.823Z,96.09
2017-09-01T03:49:18.587Z,95.93
2017-09-01T03:50:24.339Z,95.38
2017-09-01T03:51:30.000Z,95.21
2017-09-01T03:52:36.148Z,95.72
2017-09-01T03:53:50.904Z,96.71
2017-09-01T03:55:02.176Z,97.03
2017-09-01T03:56:08.975Z,97.24
2017-09-01T03:57:14.822Z,96.67
2017-09-01T03:58:28.963Z,96.42
2017-09-01T03:59:48.992Z,97.01
2017-09-01T04:01:02.000Z,96.63
2017-09-01T04:02:11.017Z,96.64
2017-09-01T04:03:16.849Z,96.98
2017-09-01T04:04:23.207Z,96.71
2017-09-01T04:05:29.345Z,96.39
2017-09-01T04:06:35.489Z,96.51
2017-09-01T04:07:41.804Z,96.65
2017-09-01T04:08:47.915Z,96.51
2017-09-01T04:09:53.722Z,97.34
2017-09-01T04:11:02.029Z,97.45
2017-09-01T04:12:08.532Z,97.07
2017-09-01T04:13:14.909Z,96.35
2017-09-01T04:14:21.084Z,96.80
2017-09-01T04:15:27.638Z,97.37
2017-09-01T04:16:33.760Z,97.61
2017-09-01T04:17:39.732Z,97.85
2017-09-01T04:18:45.913Z,98.20
2017-09-01T04:19:52.200Z,98.15
2017-09-01T04:20:59.565Z,98.06
2017-09-01T04:22:06.595Z,99.18
2017-09-01T04:23:12.845Z,99.44
2017-09-01T04:24:18.847Z,99.39
2017-09-01T04:25:25.140Z,99.63
2017-09-01T04:26:31.352Z,99.63
2017-09-01T04:27:38.377Z,99.58
2017-09-01T04:28:45.805Z,99.60
2017-09-01T04:29:51.689Z,99.86
2017-09-01T04:30:57.527Z,100.00
2017-09-01T04:32:03.367Z,100.00
2017-09-01T04:33:10.361Z,99.93
2017-09-01T04:34:16.780Z,99.80
2017-09-01T04:35:22.861Z,99.59
2017-09-01T04:36:29.305Z,99.61
2017-09-01T04:37:37.464Z,99.33
2017-09-01T04:38:43.722Z,98.76
2017-09-01T04:39:49.830Z,98.75
2017-09-01T04:40:55.176Z,98.75
2017-09-01T04:42:00.575Z,98.88
2017-09-01T04:43:05.990Z,98.82
2017-09-01T04:44:11.739Z,98.14
2017-09-01T04:45:17.838Z,98.19
2017-09-01T04:46:25.060Z,98.11
2017-09-01T04:47:31.144Z,98.06
2017-09-01T04:48:37.326Z,98.05
2017-09-01T04:49:43.401Z,97.73
2017-09-01T04:50:49.538Z,97.50
2017-09-01T04:51:55.667Z,97.20
2017-09-01T04:53:01.379Z,96.44
2017-09-01T04:54:07.617Z,95.97
2017-09-01T04:55:13.925Z,96.00
2017-09-01T04:56:19.869Z,96.63
2017-09-01T04:57:25.997Z,97.05
2017-09-01T04:58:32.860Z,96.95
2017-09-01T04:59:38.967Z,97.07
2017-09-01T05:00:44.430Z,97.32
2017-09-01T05:01:50.566Z,97.28
2017-09-01T05:02:56.797Z,97.32
2017-09-01T05:04:03.571Z,96.74
2017-09-01T05:05:09.778Z,95.69
2017-09-01T05:06:15.626Z,95.36
2017-09-01T05:07:21.813Z,95.72
2017-09-01T05:08:27.264Z,96.37
2017-09-01T05:09:33.387Z,96.05
2017-09-01T05:10:39.596Z,95.59
2017-09-01T05:11:46.000Z,94.87
2017-09-01T05:12:51.837Z,94.73
2017-09-01T05:13:58.031Z,93.87
2017-09-01T05:15:03.766Z,94.50
2017-09-01T05:16:10.625Z,93.85
2017-09-01T05:17:16.706Z,93.12
2017-09-01T05:18:22.911Z,93.48
2017-09-01T05:19:29.122Z,93.93
2017-09-01T05:20:35.274Z,93.02
2017-09-01T05:21:41.026Z,92.66
2017-09-01T05:22:47.144Z,92.83
2017-09-01T05:23:53.339Z,92.57
2017-09-01T05:24:59.555Z,93.04
2017-09-01T05:26:06.883Z,93.07
2017-09-01T05:27:12.952Z,93.21
2017-09-01T05:28:19.451Z,93.55
2017-09-01T05:29:26.134Z,94.84
2017-09-01T05:30:31.906Z,94.37
2017-09-01T05:31:39.861Z,94.46
2017-09-01T05:32:45.982Z,94.39
2017-09-01T05:33:52.772Z,94.77
2017-09-01T05:34:59.022Z,94.89
2017-09-01T05:36:05.080Z,94.60
2017-09-01T05:37:11.956Z,94.40
2017-09-01T05:38:18.048Z,94.39
2017-09-01T05:39:24.927Z,94.07
2017-09-01T05:40:33.037Z,94.02
2017-09-01T05:41:39.164Z,94.37
2017-09-01T05:42:45.278Z,93.83
2017-09-01T05:43:51.575Z,93.29
2017-09-01T05:44:57.712Z,92.89
2017-09-01T05:46:03.851Z,92.87
2017-09-01T05:47:09.920Z,92.98
2017-09-01T05:48:17.016Z,92.49
2017-09-01T05:49:23.810Z,92.17
2017-09-01T05:50:30.891Z,92.09
2017-09-01T05:51:37.312Z,91.80
2017-09-01T05:52:43.469Z,92.45
2017-09-01T05:53:49.633Z,92.31
2017-09-01T05:54:55.809Z,92.02
2017-09-01T05:56:02.137Z,91.64
2017-09-01T05:57:08.043Z,91.73
2017-09-01T05:58:14.119Z,91.85
2017-09-01T05:59:21.281Z,91.65
2017-09-01T06:00:28.469Z,91.82
2017-09-01T06:01:34.881Z,91.98
2017-09-01T06:02:42.243Z,90.60
2017-09-01T06:03:48.328Z,90.41
2017-09-01T06:04:55.077Z,90.54
2017-09-01T06:06:01.222Z,89.79
2017-09-01T06:07:07.312Z,89.83
2017-09-01T06:08:13.471Z,89.50
2017-09-01T06:09:20.289Z,89.60
2017-09-01T06:10:26.370Z,89.26
2017-09-01T06:11:32.488Z,89.69
2017-09-01T06:12:38.600Z,89.71
2017-09-01T06:13:44.836Z,89.01
2017-09-01T06:14:50.822Z,89.24
2017-09-01T06:15:57.013Z,89.37
2017-09-01T06:17:03.216Z,88.33
2017-09-01T06:18:09.318Z,88.63
2017-09-01T06:19:15.465Z,89.32
2017-09-01T06:20:21.725Z,88.72
2017-09-01T06:21:28.405Z,88.64
2017-09-01T06:22:34.004Z,87.99
2017-09-01T06:23:40.080Z,88.32
2017-09-01T06:24:46.333Z,87.69
2017-09-01T06:25:53.012Z,87.37
2017-09-01T06:26:59.192Z,87.11
2017-09-01T06:28:05.319Z,87.08
2017-09-01T06:29:12.551Z,87.22
2017-09-01T06:30:18.672Z,87.15
2017-09-01T06:31:24.742Z,86.70
2017-09-01T06:32:30.886Z,87.18
2017-09-01T06:33:36.963Z,87.25
2017-09-01T06:34:43.092Z,86.43
2017-09-01T06:35:49.174Z,87.23
2017-09-01T06:36:55.265Z,87.27
2017-09-01T06:38:01.209Z,86.54
2017-09-01T06:39:07.273Z,86.82
2017-09-01T06:40:15.831Z,86.41
2017-09-01T06:41:21.991Z,86.71
2017-09-01T06:42:29.834Z,86.49
2017-09-01T06:43:36.598Z,86.44
2017-09-01T06:44:42.719Z,86.53
2017-09-01T06:45:49.391Z,86.57
2017-09-01T06:46:55.619Z,86.29
2017-09-01T06:48:02.804Z,85.90
2017-09-01T06:49:09.076Z,86.14
2017-09-01T06:50:15.259Z,86.62
2017-09-01T06:51:21.725Z,85.87
2017-09-01T06:52:27.802Z,86.23
2017-09-01T06:53:33.973Z,85.33
2017-09-01T06:54:41.193Z,84.95
2017-09-01T06:55:47.301Z,84.48
2017-09-01T06:56:53.576Z,84.99
2017-09-01T06:57:59.844Z,85.36
2017-09-01T06:59:07.014Z,85.44
2017-09-01T07:00:13.150Z,85.81
2017-09-01T07:01:19.779Z,85.35
2017-09-01T07:02:26.494Z,85.12
2017-09-01T07:03:33.341Z,84.23
2017-09-01T07:04:39.502Z,83.51
2017-09-01T07:05:45.562Z,83.67
2017-09-01T07:06:51.719Z,83.95
2017-09-01T07:07:58.749Z,84.19
2017-09-01T07:09:04.174Z,83.15
2017-09-01T07:10:10.811Z,82.48
2017-09-01T07:11:17.630Z,83.10
2017-09-01T07:12:23.671Z,82.65
2017-09-01T07:13:30.258Z,83.54
2017-09-01T07:14:37.268Z,83.08
2017-09-01T07:15:44.491Z,82.21
2017-09-01T07:16:50.573Z,82.36
2017-09-01T07:17:56.680Z,82.49
2017-09-01T07:19:02.855Z,82.96
2017-09-01T07:20:08.905Z,81.72
2017-09-01T07:21:15.094Z,82.55
2017-09-01T07:22:21.902Z,81.77
2017-09-01T07:23:27.835Z,82.91
2017-09-01T07:24:33.942Z,83.92
2017-09-01T07:25:40.586Z,81.78
2017-09-01T07:26:46.963Z,82.05
2017-09-01T07:27:53.119Z,81.85
2017-09-01T07:28:59.798Z,82.06
2017-09-01T07:30:05.945Z,79.86
2017-09-01T07:31:12.064Z,80.85
2017-09-01T07:32:17.875Z,81.02
2017-09-01T07:33:24.020Z,81.43
2017-09-01T07:34:30.143Z,80.77
2017-09-01T07:35:36.815Z,80.64
2017-09-01T07:36:43.155Z,80.22
2017-09-01T07:37:49.408Z,80.76
2017-09-01T07:38:55.473Z,79.86
2017-09-01T07:40:01.619Z,79.10
2017-09-01T07:41:08.456Z,79.74
2017-09-01T07:42:14.634Z,79.45
2017-09-01T07:43:20.936Z,78.44
2017-09-01T07:44:27.004Z,78.20
2017-09-01T07:45:33.219Z,79.29
2017-09-01T07:46:39.353Z,79.09
2017-09-01T07:47:45.408Z,78.99
2017-09-01T07:48:51.595Z,78.41
2017-09-01T07:49:57.788Z,79.98
2017-09-01T07:51:04.803Z,79.64
2017-09-01T07:52:11.644Z,80.02
2017-09-01T07:53:17.783Z,79.61
2017-09-01T07:54:23.976Z,78.99
2017-09-01T07:55:30.042Z,78.60
2017-09-01T07:56:36.941Z,79.41
2017-09-01T07:57:43.127Z,78.97
2017-09-01T07:58:49.341Z,79.63
2017-09-01T07:59:55.446Z,78.58
2017-09-01T08:01:02.317Z,78.47
2017-09-01T08:02:08.308Z,79.35
2017-09-01T08:03:14.455Z,78.21
2017-09-01T08:04:26.772Z,78.28
2017-09-01T08:05:33.290Z,77.57
2017-09-01T08:06:39.966Z,78.30
2017-09-01T08:07:46.239Z,78.89
2017-09-01T08:08:52.377Z,78.11
2017-09-01T08:09:58.491Z,78.41
2017-09-01T08:11:05.475Z,78.30
2017-09-01T08:12:11.419Z,78.92
2017-09-01T08:13:17.531Z,77.41
2017-09-01T08:14:23.721Z,77.14
2017-09-01T08:15:31.137Z,75.97
2017-09-01T08:16:37.185Z,76.32
2017-09-01T08:17:43.386Z,76.17
2017-09-01T08:18:49.488Z,77.44
2017-09-01T08:19:55.435Z,77.13
2017-09-01T08:21:01.506Z,77.79
2017-09-01T08:22:07.575Z,77.39
2017-09-01T08:23:13.763Z,77.58
2017-09-01T08:24:19.917Z,75.95
2017-09-01T08:25:26.031Z,76.31
2017-09-01T08:26:31.999Z,76.13
2017-09-01T08:27:38.150Z,76.51
2017-09-01T08:28:44.059Z,75.91
2017-09-01T08:29:50.204Z,75.65
2017-09-01T08:30:56.242Z,76.14
2017-09-01T08:32:02.434Z,76.04
2017-09-01T08:33:08.523Z,76.53
2017-09-01T08:34:14.629Z,75.92
2017-09-01T08:35:21.494Z,75.76
2017-09-01T08:36:27.540Z,75.46
2017-09-01T08:37:33.700Z,75.36
2017-09-01T08:38:40.601Z,76.11
2017-09-01T08:39:47.061Z,76.19
2017-09-01T08:40:53.743Z,76.82
2017-09-01T08:41:59.960Z,76.76
2017-09-01T08:43:06.046Z,75.60
2017-09-01T08:44:12.601Z,75.59
2017-09-01T08:45:19.366Z,75.96
2017-09-01T08:46:25.409Z,75.22
2017-09-01T08:47:31.458Z,76.19
2017-09-01T08:48:37.752Z,77.61
2017-09-01T08:49:43.792Z,75.91
2017-09-01T08:50:49.868Z,75.94
2017-09-01T08:51:55.607Z,75.33
2017-09-01T08:53:01.539Z,76.40
2017-09-01T08:54:08.349Z,75.21
2017-09-01T08:55:14.382Z,75.88
2017-09-01T08:56:21.116Z,74.92
2017-09-01T08:57:27.169Z,76.52
2017-09-01T08:58:33.724Z,76.08
2017-09-01T08:59:39.696Z,75.34
2017-09-01T09:00:45.847Z,76.62
2017-09-01T09:01:51.953Z,76.49
2017-09-01T09:02:58.124Z,77.10
2017-09-01T09:04:05.013Z,75.16
2017-09-01T09:05:11.238Z,75.69
2017-09-01T09:06:17.284Z,76.62
2017-09-01T09:07:23.443Z,75.91
2017-09-01T09:08:29.626Z,75.81
2017-09-01T09:09:35.920Z,75.60
2017-09-01T09:10:42.245Z,76.01
2017-09-01T09:11:48.863Z,75.35
2017-09-01T09:12:55.013Z,74.85
2017-09-01T09:14:01.929Z,74.51
2017-09-01T09:15:08.010Z,73.88
2017-09-01T09:16:14.997Z,73.47
2017-09-01T09:17:22.242Z,72.58
2017-09-01T09:18:29.695Z,74.36
2017-09-01T09:19:37.075Z,73.20
2017-09-01T09:20:43.966Z,72.96
2017-09-01T09:21:50.131Z,73.33
2017-09-01T09:22:56.266Z,74.43
2017-09-01T09:24:03.009Z,72.94
2017-09-01T09:25:09.806Z,72.79
2017-09-01T09:26:15.937Z,72.76
2017-09-01T09:27:22.128Z,72.77
2017-09-01T09:28:28.296Z,73.36
2017-09-01T09:29:35.088Z,72.69
2017-09-01T09:30:41.904Z,72.54
2017-09-01T09:31:48.008Z,71.76
2017-09-01T09:32:58.418Z,71.94
2017-09-01T09:34:04.547Z,72.54
2017-09-01T09:35:10.629Z,72.14
2017-09-01T09:36:17.642Z,72.45
2017-09-01T09:37:23.733Z,72.34
2017-09-01T09:38:31.281Z,71.23
2017-09-01T09:39:44.810Z,72.28
2017-09-01T09:41:02.729Z,71.06
2017-09-01T09:42:08.467Z,71.23
2017-09-01T09:43:14.544Z,72.35
2017-09-01T09:44:20.724Z,70.99
2017-09-01T09:45:27.616Z,70.75
2017-09-01T09:46:34.081Z,72.18
2017-09-01T09:47:40.973Z,68.99
2017-09-01T09:48:48.618Z,69.58
2017-09-01T09:49:56.150Z,68.93
2017-09-01T09:51:02.202Z,68.69
2017-09-01T09:52:09.029Z,69.80
2017-09-01T09:53:18.389Z,68.09
2017-09-01T09:54:24.446Z,69.79
2017-09-01T09:55:30.785Z,69.25
2017-09-01T09:56:37.019Z,68.39
2017-09-01T09:57:43.143Z,67.87
2017-09-01T09:58:49.898Z,67.26
2017-09-01T09:59:56.002Z,68.49
2017-09-01T10:01:02.262Z,67.65
2017-09-01T10:02:09.803Z,68.07
2017-09-01T10:03:16.519Z,68.58
2017-09-01T10:04:23.184Z,68.52
2017-09-01T10:05:29.557Z,67.44
2017-09-01T10:06:36.759Z,69.87
2017-09-01T10:07:42.961Z,67.28
2017-09-01T10:08:50.224Z,67.83
2017-09-01T10:09:57.099Z,68.25
2017-09-01T10:11:05.306Z,68.25
2017-09-01T10:12:11.938Z,68.12
2017-09-01T10:13:18.221Z,69.21
2017-09-01T10:14:24.528Z,68.99
2017-09-01T10:15:30.596Z,67.32
2017-09-01T10:16:37.158Z,67.85
2017-09-01T10:17:43.097Z,68.69
2017-09-01T10:18:49.373Z,68.03
2017-09-01T10:19:56.043Z,67.33
2017-09-01T10:21:02.833Z,68.43
2017-09-01T10:22:10.637Z,67.33
2017-09-01T10:23:16.830Z,66.52
2017-09-01T10:24:22.886Z,65.06
2017-09-01T10:25:28.284Z,64.28
2017-09-01T10:26:33.626Z,64.94
2017-09-01T10:27:39.480Z,65.72
2017-09-01T10:28:45.798Z,65.41
2017-09-01T10:29:52.462Z,64.91
2017-09-01T10:30:59.251Z,65.36
2017-09-01T10:32:07.815Z,66.52
2017-09-01T10:33:15.090Z,66.44
2017-09-01T10:34:21.244Z,66.83
2017-09-01T10:35:28.917Z,66.99
2017-09-01T10:36:36.116Z,68.08
2017-09-01T10:37:42.760Z,67.33
2017-09-01T10:38:49.670Z,66.99
2017-09-01T10:39:57.590Z,66.27
2017-09-01T10:41:03.709Z,63.23
2017-09-01T10:42:09.812Z,63.57
2017-09-01T10:43:16.157Z,63.04
2017-09-01T10:44:22.385Z,64.23
2017-09-01T10:45:28.809Z,64.25
2017-09-01T10:46:34.891Z,64.85
2017-09-01T10:47:54.905Z,65.37
2017-09-01T10:49:12.277Z,65.63
2017-09-01T10:50:39.156Z,64.93
2017-09-01T10:52:09.560Z,62.73
2017-09-01T10:53:26.968Z,64.33
2017-09-01T10:54:44.024Z,64.01
2017-09-01T10:56:01.629Z,64.28
2017-09-01T10:57:33.333Z,65.66
2017-09-01T10:58:51.330Z,64.29
2017-09-01T10:59:58.081Z,64.74
2017-09-01T11:01:04.895Z,66.06
2017-09-01T11:02:10.944Z,64.58
2017-09-01T11:03:17.053Z,65.31
2017-09-01T11:04:23.705Z,66.75
2017-09-01T11:05:29.805Z,66.36
2017-09-01T11:06:37.172Z,66.74
2017-09-01T11:07:43.336Z,66.06
2017-09-01T11:08:49.492Z,66.84
2017-09-01T11:09:55.614Z,68.73
2017-09-01T11:11:03.306Z,66.62
2017-09-01T11:12:09.462Z,64.64
2017-09-01T11:13:15.856Z,66.33
2017-09-01T11:14:21.913Z,64.37
2017-09-01T11:15:27.983Z,65.08
2017-09-01T11:16:34.187Z,65.20
2017-09-01T11:17:40.827Z,65.76
2017-09-01T11:18:52.512Z,65.83
2017-09-01T11:20:04.005Z,65.05
2017-09-01T11:21:15.620Z,64.69
2017-09-01T11:22:27.245Z,65.06
2017-09-01T11:23:39.403Z,66.31
2017-09-01T11:24:45.500Z,65.99
2017-09-01T11:25:51.631Z,66.81
2017-09-01T11:26:57.753Z,66.64
2017-09-01T11:28:03.909Z,65.69
2017-09-01T11:29:11.166Z,66.44
2017-09-01T11:30:17.992Z,66.31
2017-09-01T11:31:25.292Z,66.32
2017-09-01T11:32:31.483Z,65.26
2017-09-01T11:33:40.191Z,65.51
2017-09-01T11:34:47.097Z,65.67
2017-09-01T11:35:55.220Z,65.19
2017-09-01T11:37:01.344Z,68.04
2017-09-01T11:38:07.773Z,65.65
2017-09-01T11:39:15.344Z,65.93
2017-09-01T11:40:22.774Z,64.90
2017-09-01T11:41:29.542Z,65.51
2017-09-01T11:42:36.025Z,63.37
2017-09-01T11:43:42.277Z,64.23
2017-09-01T11:44:49.124Z,64.01
2017-09-01T11:47:07.618Z,64.14
2017-09-01T11:48:13.724Z,64.74
2017-09-01T11:49:23.253Z,64.51
2017-09-01T11:50:29.624Z,64.16
2017-09-01T11:51:36.340Z,63.48
2017-09-01T11:52:43.993Z,65.59
2017-09-01T11:53:50.041Z,64.74
2017-09-01T11:54:58.858Z,65.46
2017-09-01T11:56:05.175Z,65.58
2017-09-01T11:57:12.039Z,64.99
2017-09-01T11:58:18.353Z,66.46
2017-09-01T11:59:24.542Z,64.58
2017-09-01T12:00:31.498Z,64.51
2017-09-01T12:01:37.750Z,65.77
2017-09-01T12:02:44.274Z,65.89
2017-09-01T12:03:50.379Z,66.44
2017-09-01T12:04:56.506Z,64.34
2017-09-01T12:06:02.236Z,64.82
2017-09-01T12:07:08.413Z,65.33
2017-09-01T12:08:17.382Z,64.89
2017-09-01T12:09:23.315Z,65.40
2017-09-01T12:10:29.782Z,65.74
2017-09-01T12:11:37.503Z,65.96
2017-09-01T12:12:44.906Z,64.43
2017-09-01T12:13:51.940Z,64.52
2017-09-01T12:14:58.695Z,64.63
2017-09-01T12:16:06.228Z,65.70
2017-09-01T12:17:13.386Z,66.60
2017-09-01T12:18:20.210Z,65.33
2017-09-01T12:19:26.720Z,65.57
2017-09-01T12:20:33.680Z,64.93
2017-09-01T12:21:40.686Z,64.91
2017-09-01T12:22:47.446Z,64.91
2017-09-01T12:23:55.589Z,65.49
2017-09-01T12:25:05.273Z,62.67
2017-09-01T12:26:11.792Z,64.84
2017-09-01T12:27:20.715Z,63.71
2017-09-01T12:28:27.865Z,65.28
2017-09-01T12:29:36.927Z,65.08
2017-09-01T12:30:45.317Z,64.23
2017-09-01T12:31:55.305Z,64.86
2017-09-01T12:33:03.990Z,63.16
2017-09-01T12:34:10.524Z,63.09
2017-09-01T12:35:17.093Z,62.87
2017-09-01T12:36:25.122Z,63.12
2017-09-01T12:37:32.419Z,63.21
2017-09-01T12:38:38.514Z,62.23
2017-09-01T12:39:44.908Z,64.27
2017-09-01T12:40:51.383Z,62.64
2017-09-01T12:41:57.574Z,64.00
2017-09-01T12:43:04.497Z,62.61
2017-09-01T12:44:10.740Z,61.91
2017-09-01T12:45:17.405Z,61.42
2017-09-01T12:46:25.630Z,61.58
2017-09-01T12:47:32.066Z,61.73
2017-09-01T12:48:38.160Z,61.88
2017-09-01T12:49:45.154Z,62.98
2017-09-01T12:50:57.837Z,60.53
2017-09-01T12:52:03.940Z,61.02
2017-09-01T12:53:12.072Z,60.42
2017-09-01T12:54:18.188Z,59.70
2017-09-01T12:55:24.424Z,60.16
2017-09-01T12:56:30.925Z,59.24
2017-09-01T12:57:37.785Z,60.41
2017-09-01T12:58:44.170Z,59.78
2017-09-01T12:59:50.539Z,60.02
2017-09-01T13:00:56.793Z,58.34
2017-09-01T13:02:03.794Z,58.87
2017-09-01T13:03:10.099Z,58.97
2017-09-01T13:04:18.292Z,59.41
2017-09-01T13:05:26.658Z,58.83
2017-09-01T13:06:33.961Z,58.84
2017-09-01T13:07:40.272Z,59.37
2017-09-01T13:08:49.277Z,59.02
2017-09-01T13:09:55.975Z,59.26
2017-09-01T13:11:02.100Z,58.11
2017-09-01T13:12:09.136Z,59.74
2017-09-01T13:13:17.663Z,57.92
2017-09-01T13:14:24.151Z,57.22
2017-09-01T13:15:30.518Z,56.47
2017-09-01T13:16:37.444Z,57.26
2017-09-01T13:17:43.643Z,58.71
2017-09-01T13:18:50.871Z,57.92
2017-09-01T13:19:56.911Z,57.92
2017-09-01T13:21:04.025Z,58.19
2017-09-01T13:22:10.652Z,57.48
2017-09-01T13:23:17.029Z,57.20
2017-09-01T13:24:23.105Z,57.80
2017-09-01T13:25:29.527Z,58.64
2017-09-01T13:26:35.769Z,57.65
2017-09-01T13:27:41.938Z,57.92
2017-09-01T13:28:48.216Z,59.70
2017-09-01T13:29:55.024Z,58.29
2017-09-01T13:31:02.066Z,58.26
2017-09-01T13:32:08.425Z,60.32
2017-09-01T13:33:15.094Z,60.32
2017-09-01T13:34:21.365Z,59.47
2017-09-01T13:35:28.101Z,59.88
2017-09-01T13:36:34.574Z,60.41
2017-09-01T13:37:41.600Z,60.31
2017-09-01T13:38:48.435Z,60.46
2017-09-01T13:39:54.514Z,59.86
2017-09-01T13:41:00.511Z,60.09
2017-09-01T13:42:07.532Z,61.04
2017-09-01T13:43:13.808Z,61.31
2017-09-01T13:44:20.135Z,60.53
2017-09-01T13:45:26.853Z,61.11
2017-09-01T13:46:33.732Z,61.11
2017-09-01T13:47:40.773Z,61.29
2017-09-01T13:48:48.449Z,62.57
2017-09-01T13:49:56.908Z,60.90
2017-09-01T13:51:03.001Z,60.94
2017-09-01T13:52:09.156Z,59.73
2017-09-01T13:53:16.292Z,60.29
2017-09-01T13:54:22.334Z,60.74
2017-09-01T13:55:28.626Z,60.28
2017-09-01T13:56:34.785Z,60.15
2017-09-01T13:57:41.710Z,60.78
2017-09-01T13:58:48.116Z,60.96
2017-09-01T13:59:56.187Z,61.99
2017-09-01T14:01:04.050Z,60.73
2017-09-01T14:02:10.768Z,61.67
2017-09-01T14:03:17.284Z,61.94
2017-09-01T14:04:24.517Z,62.15
2017-09-01T14:05:31.080Z,62.89
2017-09-01T14:06:37.179Z,62.36
2017-09-01T14:07:44.431Z,63.09
2017-09-01T14:08:51.481Z,63.11
2017-09-01T14:09:58.331Z,62.42
2017-09-01T14:11:04.960Z,62.05
2017-09-01T14:12:11.789Z,62.56
2017-09-01T14:13:18.178Z,62.69
2017-09-01T14:14:24.520Z,62.75
2017-09-01T14:15:33.984Z,62.49
2017-09-01T14:16:49.279Z,63.21
2017-09-01T14:18:02.961Z,63.50
2017-09-01T14:19:14.895Z,62.77
2017-09-01T14:20:26.487Z,63.41